createdAt,value
2022-08-08T00:00:55.923Z,19.20
2022-08-08T00:00:56.684Z,19.20
2022-08-08T00:01:16.082Z,19.20
2022-08-08T00:02:30.283Z,19.10
2022-08-08T00:02:56.457Z,19.20
2022-08-08T00:03:38.312Z,19.20
2022-08-08T00:04:17.293Z,19.10
2022-08-08T00:05:09.758Z,19.20
2022-08-08T00:06:03.673Z,19.10
2022-08-08T00:06:43.458Z,19.10
2022-08-08T00:07:19.314Z,19.10
2022-08-08T00:07:59.482Z,19.10
2022-08-08T00:08:40.250Z,19.10
2022-08-08T00:09:24.894Z,19.20
2022-08-08T00:10:06.233Z,19.10
2022-08-08T00:10:49.635Z,19.10
2022-08-08T00:11:46.500Z,19.10
2022-08-08T00:12:31.658Z,19.10
2022-08-08T00:13:10.404Z,19.10
2022-08-08T00:14:15.630Z,19.10
2022-08-08T00:15:00.065Z,19.10
2022-08-08T00:15:56.978Z,19.10
2022-08-08T00:16:40.136Z,19.10
2022-08-08T00:17:23.239Z,19.10
2022-08-08T00:18:03.887Z,19.10
2022-08-08T00:18:44.946Z,19.00
2022-08-08T00:19:22.685Z,19.00
2022-08-08T00:20:00.159Z,19.10
2022-08-08T00:20:42.087Z,19.00
2022-08-08T00:21:19.589Z,19.00
2022-08-08T00:22:02.204Z,19.10
2022-08-08T00:22:44.858Z,19.10
2022-08-08T00:23:28.476Z,19.10
2022-08-08T00:24:24.050Z,19.10
2022-08-08T00:25:05.641Z,19.10
2022-08-08T00:25:46.310Z,19.00
2022-08-08T00:26:29.325Z,19.00
2022-08-08T00:27:06.994Z,19.00
2022-08-08T00:27:42.292Z,19.00
2022-08-08T00:28:35.315Z,19.10
2022-08-08T00:29:15.028Z,19.00
2022-08-08T00:29:56.155Z,19.00
2022-08-08T00:30:36.123Z,19.00
2022-08-08T00:32:28.230Z,19.00
2022-08-08T00:32:35.446Z,19.00
2022-08-08T00:33:18.387Z,19.10
2022-08-08T00:34:20.311Z,19.00
2022-08-08T00:35:18.850Z,19.10
2022-08-08T00:36:01.881Z,19.10
2022-08-08T00:36:45.596Z,19.10
2022-08-08T00:37:47.691Z,19.10
2022-08-08T00:38:44.261Z,19.10
2022-08-08T00:41:05.906Z,19.10
2022-08-08T00:41:11.863Z,19.10
2022-08-08T00:42:33.127Z,19.10
2022-08-08T00:44:01.104Z,19.10
2022-08-08T00:44:57.469Z,19.10
2022-08-08T00:46:00.637Z,19.10
2022-08-08T00:47:19.326Z,19.10
2022-08-08T00:48:41.016Z,19.10
2022-08-08T00:49:39.939Z,19.20
2022-08-08T00:50:53.366Z,19.20
2022-08-08T00:52:06.584Z,19.20
2022-08-08T00:52:51.401Z,19.20
2022-08-08T00:53:43.686Z,19.10
2022-08-08T00:55:08.755Z,19.10
2022-08-08T00:56:19.402Z,19.10
2022-08-08T00:57:35.878Z,19.00
2022-08-08T00:58:39.345Z,19.00
2022-08-08T00:59:54.888Z,19.00
2022-08-08T01:00:28.480Z,19.00
2022-08-08T01:01:14.501Z,18.90
2022-08-08T01:02:01.612Z,18.90
2022-08-08T01:04:00.870Z,19.00
2022-08-08T01:04:52.291Z,19.00
2022-08-08T01:05:59.234Z,18.90
2022-08-08T01:07:20.822Z,18.80
2022-08-08T01:08:28.874Z,18.80
2022-08-08T01:09:35.655Z,18.80
2022-08-08T01:10:42.556Z,18.70
2022-08-08T01:11:56.549Z,18.70
2022-08-08T01:12:59.585Z,18.70
2022-08-08T01:13:58.519Z,18.80
2022-08-08T01:15:09.156Z,18.80
2022-08-08T01:16:08.041Z,18.80
2022-08-08T01:17:11.361Z,18.80
2022-08-08T01:18:52.549Z,18.80
2022-08-08T01:20:03.106Z,18.80
2022-08-08T01:20:56.516Z,18.70
2022-08-08T01:22:07.288Z,18.80
2022-08-08T01:23:15.920Z,18.70
2022-08-08T01:24:43.718Z,18.70
2022-08-08T01:26:02.305Z,18.70
2022-08-08T01:27:07.005Z,18.70
2022-08-08T01:28:04.099Z,18.60
2022-08-08T01:29:00.838Z,18.60
2022-08-08T01:29:59.803Z,18.60
2022-08-08T01:31:00.014Z,18.60
2022-08-08T01:32:17.553Z,18.60
2022-08-08T01:33:42.809Z,18.60
2022-08-08T01:34:55.678Z,18.50
2022-08-08T01:36:00.898Z,18.50
2022-08-08T01:37:21.613Z,18.40
2022-08-08T01:38:27.243Z,18.50
2022-08-08T01:39:28.003Z,18.40
2022-08-08T01:40:22.046Z,18.50
2022-08-08T01:41:02.903Z,18.50
2022-08-08T01:41:47.589Z,18.50
2022-08-08T01:42:36.647Z,18.50
2022-08-08T01:43:34.623Z,18.60
2022-08-08T01:44:33.172Z,18.60
2022-08-08T01:45:22.818Z,18.70
2022-08-08T01:46:00.848Z,18.70
2022-08-08T01:46:52.133Z,18.70
2022-08-08T01:48:13.804Z,18.70
2022-08-08T01:48:53.156Z,18.60
2022-08-08T01:49:40.521Z,18.60
2022-08-08T01:50:29.842Z,18.60
2022-08-08T01:52:41.613Z,18.50
2022-08-08T01:53:55.322Z,18.70
2022-08-08T01:55:16.603Z,18.50
2022-08-08T01:55:45.242Z,18.50
2022-08-08T01:56:28.539Z,18.50
2022-08-08T01:57:02.170Z,18.50
2022-08-08T01:58:12.447Z,18.50
2022-08-08T01:58:46.931Z,18.50
2022-08-08T02:00:01.748Z,18.50
2022-08-08T02:00:42.868Z,18.50
2022-08-08T02:01:30.267Z,18.50
2022-08-08T02:02:41.492Z,18.50
2022-08-08T02:03:56.060Z,18.50
2022-08-08T02:04:33.915Z,18.50
2022-08-08T02:05:23.216Z,18.50
2022-08-08T02:06:05.154Z,18.50
2022-08-08T02:06:54.350Z,18.50
2022-08-08T02:07:48.845Z,18.60
2022-08-08T02:08:34.541Z,18.60
2022-08-08T02:10:01.098Z,18.50
2022-08-08T02:10:45.098Z,18.50
2022-08-08T02:11:52.695Z,18.40
2022-08-08T02:12:29.247Z,18.40
2022-08-08T02:13:15.845Z,18.30
2022-08-08T02:14:09.619Z,18.40
2022-08-08T02:14:50.155Z,18.30
2022-08-08T02:15:38.901Z,18.30
2022-08-08T02:16:21.244Z,18.30
2022-08-08T02:17:03.167Z,18.30
2022-08-08T02:17:50.472Z,18.30
2022-08-08T02:18:42.418Z,18.30
2022-08-08T02:19:41.695Z,18.20
2022-08-08T02:21:01.854Z,18.20
2022-08-08T02:21:41.983Z,18.20
2022-08-08T02:22:33.742Z,18.20
2022-08-08T02:23:16.235Z,18.20
2022-08-08T02:23:54.663Z,18.20
2022-08-08T02:24:29.602Z,18.20
2022-08-08T02:25:11.936Z,18.20
2022-08-08T02:25:56.363Z,18.20
2022-08-08T02:26:35.823Z,18.20
2022-08-08T02:27:15.100Z,18.20
2022-08-08T02:27:57.294Z,18.20
2022-08-08T02:28:51.655Z,18.20
2022-08-08T02:29:46.757Z,18.20
2022-08-08T02:30:37.728Z,18.10
2022-08-08T02:31:59.587Z,18.10
2022-08-08T02:32:54.050Z,18.10
2022-08-08T02:33:41.644Z,18.10
2022-08-08T02:35:08.041Z,18.10
2022-08-08T02:36:05.671Z,18.10
2022-08-08T02:36:55.135Z,18.10
2022-08-08T02:37:52.247Z,18.10
2022-08-08T02:38:53.113Z,18.10
2022-08-08T02:39:59.889Z,18.10
2022-08-08T02:40:39.675Z,18.10
2022-08-08T02:42:03.886Z,18.10
2022-08-08T02:43:07.412Z,18.10
2022-08-08T02:44:39.375Z,18.10
2022-08-08T02:45:21.560Z,18.00
2022-08-08T02:46:35.606Z,18.00
2022-08-08T02:47:40.890Z,18.10
2022-08-08T02:48:50.668Z,18.10
2022-08-08T02:49:51.973Z,18.10
2022-08-08T02:50:59.686Z,18.20
2022-08-08T02:52:32.942Z,18.20
2022-08-08T02:53:17.995Z,18.20
2022-08-08T02:54:03.779Z,18.20
2022-08-08T02:55:19.937Z,18.30
2022-08-08T02:56:25.190Z,18.30
2022-08-08T02:57:23.999Z,18.30
2022-08-08T02:58:37.550Z,18.20
2022-08-08T02:59:58.002Z,18.20
2022-08-08T03:01:20.296Z,18.20
2022-08-08T03:02:37.273Z,18.20
2022-08-08T03:05:03.805Z,18.20
2022-08-08T03:05:45.467Z,18.10
2022-08-08T03:06:56.814Z,18.10
2022-08-08T03:08:04.350Z,18.10
2022-08-08T03:09:16.694Z,18.10
2022-08-08T03:10:32.940Z,18.00
2022-08-08T03:12:02.566Z,18.00
2022-08-08T03:13:07.478Z,18.00
2022-08-08T03:16:00.165Z,18.00
2022-08-08T03:16:05.325Z,18.00
2022-08-08T03:16:46.109Z,18.00
2022-08-08T03:17:38.965Z,18.00
2022-08-08T03:18:30.758Z,18.00
2022-08-08T03:19:37.574Z,18.00
2022-08-08T03:20:11.448Z,18.00
2022-08-08T03:20:46.977Z,18.00
2022-08-08T03:21:26.941Z,18.00
2022-08-08T03:22:38.419Z,18.10
2022-08-08T03:23:06.569Z,18.00
2022-08-08T03:23:56.589Z,18.00
2022-08-08T03:24:31.246Z,18.00
2022-08-08T03:25:14.565Z,18.00
2022-08-08T03:25:50.129Z,18.00
2022-08-08T03:26:30.810Z,18.00
2022-08-08T03:27:09.413Z,18.00
2022-08-08T03:27:47.284Z,18.00
2022-08-08T03:28:32.776Z,18.00
2022-08-08T03:29:16.858Z,18.00
2022-08-08T03:29:58.281Z,18.00
2022-08-08T03:30:32.090Z,17.90
2022-08-08T03:31:24.995Z,17.90
2022-08-08T03:32:16.808Z,17.90
2022-08-08T03:33:53.932Z,17.90
2022-08-08T03:34:05.339Z,17.90
2022-08-08T03:34:40.030Z,17.80
2022-08-08T03:35:12.959Z,17.80
2022-08-08T03:35:50.419Z,17.80
2022-08-08T03:36:27.947Z,17.80
2022-08-08T03:37:10.721Z,17.80
2022-08-08T03:37:59.675Z,17.80
2022-08-08T03:38:54.931Z,17.80
2022-08-08T03:39:32.195Z,17.80
2022-08-08T03:40:29.929Z,17.80
2022-08-08T03:41:22.848Z,17.80
2022-08-08T03:42:27.865Z,17.80
2022-08-08T03:42:50.317Z,17.80
2022-08-08T03:43:25.135Z,17.80
2022-08-08T03:44:03.574Z,17.70
2022-08-08T03:44:38.455Z,17.70
2022-08-08T03:46:05.789Z,17.70
2022-08-08T03:46:09.681Z,17.80
2022-08-08T03:46:47.122Z,17.80
2022-08-08T03:47:22.054Z,17.80
2022-08-08T03:47:58.746Z,17.80
2022-08-08T03:49:09.819Z,17.80
2022-08-08T03:49:58.155Z,17.80
2022-08-08T03:50:19.684Z,17.80
2022-08-08T03:50:53.033Z,17.90
2022-08-08T03:51:35.396Z,17.90
2022-08-08T03:52:14.089Z,17.90
2022-08-08T03:52:46.218Z,17.90
2022-08-08T03:53:24.264Z,18.00
2022-08-08T03:54:15.733Z,18.00
2022-08-08T03:55:20.199Z,18.00
2022-08-08T03:56:04.738Z,18.00
2022-08-08T03:56:42.469Z,17.90
2022-08-08T03:58:33.346Z,17.90
2022-08-08T03:58:35.371Z,17.90
2022-08-08T03:59:09.584Z,18.00
2022-08-08T03:59:59.644Z,18.00
2022-08-08T04:00:56.439Z,17.90
2022-08-08T04:02:12.502Z,17.90
2022-08-08T04:02:47.630Z,17.90
2022-08-08T04:03:25.932Z,17.90
2022-08-08T04:04:13.562Z,17.80
2022-08-08T04:04:48.381Z,17.80
2022-08-08T04:05:28.094Z,17.80
2022-08-08T04:06:05.931Z,17.80
2022-08-08T04:06:38.562Z,17.80
2022-08-08T04:07:10.781Z,17.80
2022-08-08T04:07:49.437Z,17.80
2022-08-08T04:08:33.137Z,17.90
2022-08-08T04:09:11.287Z,17.80
2022-08-08T04:10:00.843Z,17.80
2022-08-08T04:10:38.689Z,17.90
2022-08-08T04:11:17.658Z,17.80
2022-08-08T04:12:00.557Z,17.80
2022-08-08T04:12:33.883Z,17.80
2022-08-08T04:13:18.240Z,17.80
2022-08-08T04:14:03.491Z,17.80
2022-08-08T04:14:45.253Z,17.80
2022-08-08T04:15:17.398Z,17.70
2022-08-08T04:15:54.705Z,17.70
2022-08-08T04:16:38.934Z,17.70
2022-08-08T04:17:22.943Z,17.70
2022-08-08T04:18:05.772Z,17.70
2022-08-08T04:18:44.912Z,17.60
2022-08-08T04:19:23.832Z,17.60
2022-08-08T04:19:58.309Z,17.60
2022-08-08T04:20:30.196Z,17.60
2022-08-08T04:21:02.169Z,17.60
2022-08-08T04:21:45.585Z,17.60
2022-08-08T04:22:17.849Z,17.60
2022-08-08T04:22:57.273Z,17.60
2022-08-08T04:24:00.424Z,17.60
2022-08-08T04:24:28.599Z,17.60
2022-08-08T04:25:03.170Z,17.60
2022-08-08T04:25:38.107Z,17.60
2022-08-08T04:26:12.152Z,17.60
2022-08-08T04:26:57.530Z,17.60
2022-08-08T04:28:02.692Z,17.60
2022-08-08T04:28:36.836Z,17.60
2022-08-08T04:29:15.059Z,17.60
2022-08-08T04:29:55.225Z,17.60
2022-08-08T04:30:36.598Z,17.60
2022-08-08T04:31:56.679Z,17.60
2022-08-08T04:32:10.428Z,17.60
2022-08-08T04:32:48.215Z,17.60
2022-08-08T04:33:22.509Z,17.60
2022-08-08T04:33:54.349Z,17.50
2022-08-08T04:34:31.703Z,17.60
2022-08-08T04:35:04.517Z,17.50
2022-08-08T04:35:39.637Z,17.60
2022-08-08T04:36:11.897Z,17.50
2022-08-08T04:36:43.800Z,17.50
2022-08-08T04:37:19.197Z,17.50
2022-08-08T04:37:51.254Z,17.50
2022-08-08T04:38:23.118Z,17.60
2022-08-08T04:39:47.794Z,17.60
2022-08-08T04:40:06.449Z,17.60
2022-08-08T04:40:51.756Z,17.60
2022-08-08T04:41:26.313Z,17.50
2022-08-08T04:42:11.313Z,17.50
2022-08-08T04:42:57.157Z,17.50
2022-08-08T04:43:31.821Z,17.50
2022-08-08T04:44:17.981Z,17.50
2022-08-08T04:44:52.280Z,17.50
2022-08-08T04:45:26.438Z,17.50
2022-08-08T04:45:59.088Z,17.50
2022-08-08T04:46:31.206Z,17.60
2022-08-08T04:47:04.456Z,17.60
2022-08-08T04:47:43.294Z,17.60
2022-08-08T04:48:21.896Z,17.60
2022-08-08T04:48:54.173Z,17.60
2022-08-08T04:49:28.575Z,17.60
2022-08-08T04:50:06.018Z,17.60
2022-08-08T04:50:38.886Z,17.60
2022-08-08T04:51:23.650Z,17.60
2022-08-08T04:52:05.438Z,17.60
2022-08-08T04:52:38.261Z,17.60
2022-08-08T04:53:52.273Z,17.60
2022-08-08T04:54:39.217Z,17.60
2022-08-08T04:54:56.225Z,17.60
2022-08-08T04:55:47.077Z,17.60
2022-08-08T04:56:21.226Z,17.50
2022-08-08T04:56:54.122Z,17.50
2022-08-08T04:57:26.066Z,17.40
2022-08-08T04:58:00.562Z,17.50
2022-08-08T04:58:33.406Z,17.50
2022-08-08T04:59:05.426Z,17.50
2022-08-08T04:59:42.275Z,17.50
2022-08-08T05:00:19.666Z,17.50
2022-08-08T05:00:52.248Z,17.50
2022-08-08T05:01:24.514Z,17.50
2022-08-08T05:02:22.457Z,17.50
2022-08-08T05:03:00.597Z,17.50
2022-08-08T05:04:11.202Z,17.50
2022-08-08T05:04:39.437Z,17.50
2022-08-08T05:05:20.415Z,17.50
2022-08-08T05:06:13.384Z,17.50
2022-08-08T05:06:48.140Z,17.50
2022-08-08T05:07:24.293Z,17.50
2022-08-08T05:07:57.689Z,17.50
2022-08-08T05:08:31.036Z,17.60
2022-08-08T05:09:06.082Z,17.60
2022-08-08T05:09:38.299Z,17.60
2022-08-08T05:10:12.861Z,17.60
2022-08-08T05:10:45.021Z,17.60
2022-08-08T05:11:23.099Z,17.60
2022-08-08T05:11:59.191Z,17.60
2022-08-08T05:12:31.349Z,17.60
2022-08-08T05:13:12.862Z,17.60
2022-08-08T05:13:54.971Z,17.60
2022-08-08T05:14:34.172Z,17.60
2022-08-08T05:15:06.551Z,17.60
2022-08-08T05:16:54.509Z,17.60
2022-08-08T05:16:55.642Z,17.60
2022-08-08T05:17:24.406Z,17.60
2022-08-08T05:17:57.204Z,17.60
2022-08-08T05:18:29.891Z,17.50
2022-08-08T05:19:01.734Z,17.60
2022-08-08T05:20:11.294Z,17.60
2022-08-08T05:20:30.064Z,17.60
2022-08-08T05:21:05.811Z,17.50
2022-08-08T05:21:43.804Z,17.60
2022-08-08T05:22:31.512Z,17.50
2022-08-08T05:23:04.139Z,17.60
2022-08-08T05:23:41.230Z,17.50
2022-08-08T05:24:18.805Z,17.50
2022-08-08T05:24:57.945Z,17.50
2022-08-08T05:25:41.507Z,17.50
2022-08-08T05:26:14.085Z,17.50
2022-08-08T05:26:46.354Z,17.60
2022-08-08T05:27:22.964Z,17.50
2022-08-08T05:27:55.123Z,17.60
2022-08-08T05:28:55.885Z,17.50
2022-08-08T05:29:21.038Z,17.60
2022-08-08T05:29:52.950Z,17.50
2022-08-08T05:30:28.549Z,17.60
2022-08-08T05:31:08.543Z,17.60
2022-08-08T05:32:04.356Z,17.60
2022-08-08T05:32:38.292Z,17.60
2022-08-08T05:33:11.689Z,17.70
2022-08-08T05:33:49.492Z,17.70
2022-08-08T05:34:34.816Z,17.70
2022-08-08T05:35:09.661Z,17.70
2022-08-08T05:35:44.444Z,17.70
2022-08-08T05:36:25.668Z,17.70
2022-08-08T05:37:00.453Z,17.80
2022-08-08T05:37:52.860Z,17.80
2022-08-08T05:38:30.788Z,17.80
2022-08-08T05:39:06.818Z,17.80
2022-08-08T05:39:43.934Z,17.80
2022-08-08T05:40:17.151Z,17.80
2022-08-08T05:40:57.611Z,17.90
2022-08-08T05:41:33.309Z,17.90
2022-08-08T05:42:37.044Z,17.90
2022-08-08T05:43:17.219Z,18.00
2022-08-08T05:44:08.500Z,18.00
2022-08-08T05:44:46.804Z,18.00
2022-08-08T05:45:25.395Z,18.00
2022-08-08T05:46:08.044Z,18.00
2022-08-08T05:46:41.499Z,18.00
2022-08-08T05:47:22.649Z,18.10
2022-08-08T05:48:00.530Z,18.00
2022-08-08T05:48:41.939Z,18.10
2022-08-08T05:49:16.457Z,18.10
2022-08-08T05:49:55.809Z,18.10
2022-08-08T05:50:29.614Z,18.20
2022-08-08T05:51:14.432Z,18.20
2022-08-08T05:51:49.730Z,18.20
2022-08-08T05:52:35.438Z,18.20
2022-08-08T05:53:23.184Z,18.20
2022-08-08T05:54:28.562Z,18.30
2022-08-08T05:55:02.074Z,18.30
2022-08-08T05:56:07.824Z,18.30
2022-08-08T05:56:31.849Z,18.30
2022-08-08T05:57:07.150Z,18.30
2022-08-08T05:58:04.169Z,18.30
2022-08-08T05:58:34.861Z,18.40
2022-08-08T06:00:00.822Z,18.40
2022-08-08T06:00:22.804Z,18.40
2022-08-08T06:00:58.412Z,18.40
2022-08-08T06:01:52.586Z,18.40
2022-08-08T06:02:48.692Z,18.40
2022-08-08T06:03:25.311Z,18.40
2022-08-08T06:04:08.424Z,18.40
2022-08-08T06:04:54.453Z,18.50
2022-08-08T06:05:35.485Z,18.50
2022-08-08T06:06:09.685Z,18.50
2022-08-08T06:06:42.798Z,18.50
2022-08-08T06:07:20.238Z,18.50
2022-08-08T06:08:02.021Z,18.50
2022-08-08T06:08:36.763Z,18.50
2022-08-08T06:09:59.106Z,18.50
2022-08-08T06:10:03.465Z,18.60
2022-08-08T06:10:41.116Z,18.60
2022-08-08T06:11:13.364Z,18.60
2022-08-08T06:11:49.075Z,18.70
2022-08-08T06:12:29.952Z,18.70
2022-08-08T06:13:04.426Z,18.70
2022-08-08T06:13:47.784Z,18.70
2022-08-08T06:14:22.888Z,18.80
2022-08-08T06:14:57.780Z,18.90
2022-08-08T06:15:50.028Z,18.90
2022-08-08T06:16:27.705Z,19.00
2022-08-08T06:17:04.662Z,19.00
2022-08-08T06:17:50.974Z,19.00
2022-08-08T06:18:33.265Z,19.10
2022-08-08T06:19:05.618Z,19.10
2022-08-08T06:19:41.342Z,19.10
2022-08-08T06:20:16.249Z,19.20
2022-08-08T06:20:49.597Z,19.20
2022-08-08T06:21:32.484Z,19.20
2022-08-08T06:22:32.085Z,19.20
2022-08-08T06:22:58.354Z,19.30
2022-08-08T06:23:53.186Z,19.20
2022-08-08T06:24:31.024Z,19.20
2022-08-08T06:25:04.643Z,19.20
2022-08-08T06:26:38.981Z,19.20
2022-08-08T06:26:45.403Z,19.20
2022-08-08T06:27:29.881Z,19.10
2022-08-08T06:28:14.273Z,19.10
2022-08-08T06:28:54.242Z,19.10
2022-08-08T06:30:00.365Z,19.20
2022-08-08T06:30:28.845Z,19.20
2022-08-08T06:31:03.665Z,19.20
2022-08-08T06:31:52.866Z,19.20
2022-08-08T06:32:32.126Z,19.20
2022-08-08T06:33:06.290Z,19.20
2022-08-08T06:34:26.503Z,19.20
2022-08-08T06:34:39.795Z,19.20
2022-08-08T06:36:07.522Z,19.20
2022-08-08T06:36:10.314Z,19.20
2022-08-08T06:36:53.372Z,19.10
2022-08-08T06:37:37.496Z,19.10
2022-08-08T06:38:14.869Z,19.20
2022-08-08T06:38:50.553Z,19.20
2022-08-08T06:39:24.572Z,19.20
2022-08-08T06:40:03.461Z,19.20
2022-08-08T06:40:37.039Z,19.20
2022-08-08T06:41:13.353Z,19.20
2022-08-08T06:41:51.029Z,19.20
2022-08-08T06:42:29.434Z,19.20
2022-08-08T06:43:09.641Z,19.20
2022-08-08T06:43:47.818Z,19.30
2022-08-08T06:44:30.316Z,19.20
2022-08-08T06:45:05.414Z,19.30
2022-08-08T06:45:39.589Z,19.30
2022-08-08T06:46:13.335Z,19.30
2022-08-08T06:46:49.297Z,19.40
2022-08-08T06:47:33.872Z,19.40
2022-08-08T06:48:15.580Z,19.50
2022-08-08T06:48:49.176Z,19.40
2022-08-08T06:49:56.480Z,19.50
2022-08-08T06:50:17.656Z,19.50
2022-08-08T06:51:07.625Z,19.50
2022-08-08T06:51:52.706Z,19.60
2022-08-08T06:52:31.066Z,19.70
2022-08-08T06:53:09.903Z,19.70
2022-08-08T06:53:50.745Z,19.70
2022-08-08T06:54:29.339Z,19.80
2022-08-08T06:55:01.703Z,19.90
2022-08-08T06:55:37.756Z,19.90
2022-08-08T06:56:16.709Z,20.00
2022-08-08T06:56:51.607Z,20.00
2022-08-08T06:57:24.989Z,20.10
2022-08-08T06:58:04.181Z,20.10
2022-08-08T06:58:40.034Z,20.10
2022-08-08T06:59:13.157Z,20.10
2022-08-08T07:00:10.818Z,20.20
2022-08-08T07:00:40.863Z,20.20
2022-08-08T07:02:17.355Z,20.20
2022-08-08T07:02:26.723Z,20.20
2022-08-08T07:03:04.851Z,20.20
2022-08-08T07:03:51.920Z,20.10
2022-08-08T07:04:51.951Z,20.10
2022-08-08T07:05:29.866Z,20.10
2022-08-08T07:06:17.311Z,20.10
2022-08-08T07:06:54.608Z,20.10
2022-08-08T07:07:37.168Z,20.10
2022-08-08T07:08:16.439Z,20.00
2022-08-08T07:08:52.921Z,20.00
2022-08-08T07:09:45.536Z,20.00
2022-08-08T07:10:32.701Z,20.00
2022-08-08T07:11:05.667Z,20.00
2022-08-08T07:11:50.783Z,20.00
2022-08-08T07:12:32.150Z,20.10
2022-08-08T07:13:06.124Z,20.10
2022-08-08T07:14:00.444Z,20.10
2022-08-08T07:14:42.170Z,20.10
2022-08-08T07:15:32.451Z,20.10
2022-08-08T07:16:15.881Z,20.10
2022-08-08T07:16:58.366Z,20.10
2022-08-08T07:17:40.275Z,20.10
2022-08-08T07:18:40.842Z,20.10
2022-08-08T07:19:23.176Z,20.10
2022-08-08T07:20:05.430Z,20.10
2022-08-08T07:20:46.028Z,20.10
2022-08-08T07:21:27.884Z,20.10
2022-08-08T07:22:05.632Z,20.20
2022-08-08T07:22:54.986Z,20.20
2022-08-08T07:24:01.526Z,20.20
2022-08-08T07:24:34.435Z,20.20
2022-08-08T07:25:07.443Z,20.20
2022-08-08T07:25:54.137Z,20.30
2022-08-08T07:26:35.243Z,20.30
2022-08-08T07:27:16.708Z,20.30
2022-08-08T07:28:02.871Z,20.40
2022-08-08T07:28:42.533Z,20.30
2022-08-08T07:29:54.661Z,20.30
2022-08-08T07:30:14.826Z,20.40
2022-08-08T07:30:48.801Z,20.40
2022-08-08T07:31:22.418Z,20.50
2022-08-08T07:31:58.824Z,20.40
2022-08-08T07:32:32.120Z,20.50
2022-08-08T07:33:05.689Z,20.50
2022-08-08T07:33:53.660Z,20.50
2022-08-08T07:34:32.762Z,20.50
2022-08-08T07:35:06.152Z,20.50
2022-08-08T07:35:39.014Z,20.50
2022-08-08T07:36:12.512Z,20.60
2022-08-08T07:36:50.933Z,20.60
2022-08-08T07:37:23.613Z,20.60
2022-08-08T07:38:05.093Z,20.60
2022-08-08T07:38:49.165Z,20.60
2022-08-08T07:39:29.325Z,20.70
2022-08-08T07:40:02.749Z,20.60
2022-08-08T07:40:35.879Z,20.70
2022-08-08T07:41:16.779Z,20.70
2022-08-08T07:42:04.917Z,20.70
2022-08-08T07:42:37.583Z,20.70
2022-08-08T07:43:13.678Z,20.70
2022-08-08T07:43:51.220Z,20.70
2022-08-08T07:44:40.783Z,20.70
2022-08-08T07:45:17.829Z,20.80
2022-08-08T07:46:05.153Z,20.80
2022-08-08T07:46:42.589Z,20.80
2022-08-08T07:47:14.441Z,20.80
2022-08-08T07:47:49.174Z,20.90
2022-08-08T07:48:24.590Z,20.90
2022-08-08T07:49:01.691Z,20.90
2022-08-08T07:49:36.497Z,20.90
2022-08-08T07:50:13.587Z,20.90
2022-08-08T07:50:48.171Z,20.90
2022-08-08T07:51:23.009Z,20.90
2022-08-08T07:51:56.514Z,21.00
2022-08-08T07:52:31.515Z,21.00
2022-08-08T07:53:52.217Z,21.00
2022-08-08T07:54:27.223Z,21.00
2022-08-08T07:55:04.474Z,21.00
2022-08-08T07:55:41.246Z,21.00
2022-08-08T07:56:17.066Z,20.90
2022-08-08T07:57:19.778Z,20.90
2022-08-08T07:58:01.470Z,21.00
2022-08-08T07:58:39.693Z,21.00
2022-08-08T07:59:16.365Z,20.90
2022-08-08T08:00:03.085Z,20.90
2022-08-08T08:00:41.143Z,20.90
2022-08-08T08:01:20.413Z,21.00
2022-08-08T08:02:36.489Z,21.00
2022-08-08T08:03:01.966Z,21.10
2022-08-08T08:03:43.487Z,21.00
2022-08-08T08:04:17.927Z,21.00
2022-08-08T08:04:56.602Z,21.00
2022-08-08T08:05:33.483Z,21.00
2022-08-08T08:06:07.024Z,21.00
2022-08-08T08:06:41.836Z,21.00
2022-08-08T08:07:16.276Z,21.00
2022-08-08T08:07:54.578Z,21.00
2022-08-08T08:08:32.201Z,21.00
2022-08-08T08:09:10.942Z,21.00
2022-08-08T08:09:44.070Z,21.10
2022-08-08T08:10:18.158Z,21.10
2022-08-08T08:11:04.339Z,21.10
2022-08-08T08:11:51.418Z,21.10
2022-08-08T08:12:35.495Z,21.10
2022-08-08T08:13:25.889Z,21.10
2022-08-08T08:14:19.323Z,21.10
2022-08-08T08:14:55.656Z,21.10
2022-08-08T08:15:32.096Z,21.20
2022-08-08T08:16:05.964Z,21.20
2022-08-08T08:16:41.574Z,21.20
2022-08-08T08:17:22.797Z,21.30
2022-08-08T08:17:59.085Z,21.30
2022-08-08T08:18:51.671Z,21.30
2022-08-08T08:19:45.833Z,21.30
2022-08-08T08:20:21.163Z,21.30
2022-08-08T08:21:04.701Z,21.40
2022-08-08T08:21:56.961Z,21.40
2022-08-08T08:22:33.810Z,21.40
2022-08-08T08:23:06.140Z,21.40
2022-08-08T08:23:40.636Z,21.40
2022-08-08T08:24:15.411Z,21.40
2022-08-08T08:24:47.450Z,21.40
2022-08-08T08:25:42.367Z,21.40
2022-08-08T08:26:13.865Z,21.40
2022-08-08T08:27:03.482Z,21.40
2022-08-08T08:27:35.699Z,21.40
2022-08-08T08:28:09.391Z,21.40
2022-08-08T08:28:42.407Z,21.40
2022-08-08T08:29:16.554Z,21.50
2022-08-08T08:29:53.193Z,21.50
2022-08-08T08:30:27.814Z,21.50
2022-08-08T08:31:04.684Z,21.50
2022-08-08T08:31:37.547Z,21.50
2022-08-08T08:32:32.115Z,21.50
2022-08-08T08:33:11.191Z,21.50
2022-08-08T08:33:43.774Z,21.50
2022-08-08T08:34:23.353Z,21.50
2022-08-08T08:34:55.199Z,21.50
2022-08-08T08:36:20.066Z,21.50
2022-08-08T08:36:21.963Z,21.50
2022-08-08T08:36:59.462Z,21.50
2022-08-08T08:37:31.426Z,21.50
2022-08-08T08:38:17.424Z,21.50
2022-08-08T08:38:51.148Z,21.50
2022-08-08T08:39:24.020Z,21.50
2022-08-08T08:40:01.804Z,21.50
2022-08-08T08:40:35.946Z,21.60
2022-08-08T08:41:16.843Z,21.60
2022-08-08T08:41:51.172Z,21.60
2022-08-08T08:42:32.041Z,21.70
2022-08-08T08:43:15.188Z,21.70
2022-08-08T08:43:51.018Z,21.70
2022-08-08T08:44:29.015Z,21.60
2022-08-08T08:45:20.828Z,21.60
2022-08-08T08:45:57.333Z,21.60
2022-08-08T08:46:31.638Z,21.70
2022-08-08T08:47:04.704Z,21.70
2022-08-08T08:47:44.692Z,21.70
2022-08-08T08:48:20.642Z,21.70
2022-08-08T08:48:53.439Z,21.80
2022-08-08T08:49:30.658Z,21.80
2022-08-08T08:50:06.774Z,21.80
2022-08-08T08:51:03.275Z,21.90
2022-08-08T08:51:51.711Z,21.90
2022-08-08T08:52:25.069Z,21.90
2022-08-08T08:53:04.885Z,21.90
2022-08-08T08:54:01.009Z,21.90
2022-08-08T08:54:34.845Z,21.90
2022-08-08T08:55:12.327Z,21.90
2022-08-08T08:55:46.697Z,21.90
2022-08-08T08:56:24.103Z,21.90
2022-08-08T08:56:58.379Z,21.90
2022-08-08T08:57:34.529Z,22.00
2022-08-08T08:58:08.638Z,22.00
2022-08-08T08:58:49.871Z,22.00
2022-08-08T08:59:59.034Z,22.00
2022-08-08T09:00:19.162Z,22.00
2022-08-08T09:01:09.302Z,22.00
2022-08-08T09:01:45.610Z,22.00
2022-08-08T09:02:21.405Z,22.00
2022-08-08T09:02:59.932Z,22.00
2022-08-08T09:03:45.674Z,21.90
2022-08-08T09:04:31.323Z,22.00
2022-08-08T09:05:49.263Z,22.00
2022-08-08T09:06:26.909Z,22.00
2022-08-08T09:07:12.154Z,22.10
2022-08-08T09:07:52.352Z,22.10
2022-08-08T09:08:42.728Z,22.10
2022-08-08T09:09:35.600Z,22.10
2022-08-08T09:10:17.305Z,22.10
2022-08-08T09:10:51.067Z,22.10
2022-08-08T09:11:24.250Z,22.10
2022-08-08T09:12:06.353Z,22.20
2022-08-08T09:12:40.618Z,22.20
2022-08-08T09:13:28.131Z,22.20
2022-08-08T09:14:01.123Z,22.20
2022-08-08T09:14:34.448Z,22.30
2022-08-08T09:15:08.339Z,22.30
2022-08-08T09:15:43.287Z,22.30
2022-08-08T09:16:16.162Z,22.40
2022-08-08T09:16:52.246Z,22.40
2022-08-08T09:17:40.904Z,22.40
2022-08-08T09:18:18.107Z,22.40
2022-08-08T09:18:50.789Z,22.40
2022-08-08T09:21:57.975Z,22.30
2022-08-08T09:22:00.535Z,22.30
2022-08-08T09:22:01.476Z,22.30
2022-08-08T09:22:06.103Z,22.30
2022-08-08T09:22:39.549Z,22.30
2022-08-08T09:23:17.641Z,22.30
2022-08-08T09:23:50.153Z,22.30
2022-08-08T09:24:24.353Z,22.30
2022-08-08T09:24:58.570Z,22.30
2022-08-08T09:25:36.182Z,22.40
2022-08-08T09:26:39.335Z,22.40
2022-08-08T09:27:20.249Z,22.40
2022-08-08T09:28:06.189Z,22.40
2022-08-08T09:28:40.189Z,22.40
2022-08-08T09:29:22.669Z,22.40
2022-08-08T09:30:04.019Z,22.50
2022-08-08T09:30:43.774Z,22.50
2022-08-08T09:31:42.716Z,22.50
2022-08-08T09:32:37.102Z,22.50
2022-08-08T09:33:54.729Z,22.40
2022-08-08T09:34:30.736Z,22.50
2022-08-08T09:35:06.494Z,22.50
2022-08-08T09:35:49.889Z,22.50
2022-08-08T09:36:24.387Z,22.50
2022-08-08T09:37:57.477Z,22.50
2022-08-08T09:38:02.362Z,22.50
2022-08-08T09:38:53.324Z,22.50
2022-08-08T09:39:30.505Z,22.50
2022-08-08T09:40:11.056Z,22.50
2022-08-08T09:40:53.938Z,22.50
2022-08-08T09:42:14.453Z,22.50
2022-08-08T09:42:33.909Z,22.50
2022-08-08T09:43:41.150Z,22.50